createdAt,value
2022-10-18T00:02:01.967Z,13.58
2022-10-18T00:04:28.363Z,13.60
2022-10-18T00:06:54.702Z,13.59
2022-10-18T00:09:21.043Z,13.56
2022-10-18T00:11:47.371Z,13.60
2022-10-18T00:14:13.742Z,13.57
2022-10-18T00:16:40.093Z,13.57
2022-10-18T00:19:06.391Z,13.56
2022-10-18T00:21:32.746Z,13.54
2022-10-18T00:23:59.088Z,13.50
2022-10-18T00:26:28.334Z,13.51
2022-10-18T00:29:00.438Z,13.52
2022-10-18T00:31:32.834Z,13.53
2022-10-18T00:34:02.155Z,13.49
2022-10-18T00:36:30.235Z,13.51
2022-10-18T00:38:57.255Z,13.45
2022-10-18T00:41:26.676Z,13.43
2022-10-18T00:44:16.188Z,13.44
2022-10-18T00:46:44.880Z,13.44
2022-10-18T00:49:13.734Z,13.42
2022-10-18T00:51:44.855Z,13.38
2022-10-18T00:54:13.341Z,13.39
2022-10-18T00:56:39.848Z,13.33
2022-10-18T00:59:07.759Z,13.22
2022-10-18T01:01:34.322Z,13.22
2022-10-18T01:04:00.821Z,13.22
2022-10-18T01:06:28.708Z,13.25
2022-10-18T01:09:21.102Z,13.19
2022-10-18T01:12:08.593Z,13.22
2022-10-18T01:14:52.687Z,13.25
2022-10-18T01:17:51.024Z,13.17
2022-10-18T01:20:43.573Z,13.13
2022-10-18T01:23:54.981Z,13.09
2022-10-18T01:26:48.701Z,13.06
2022-10-18T01:29:33.331Z,13.04
2022-10-18T01:32:04.152Z,12.99
2022-10-18T01:34:35.030Z,12.99
2022-10-18T01:37:04.867Z,13.02
2022-10-18T01:39:36.690Z,12.97
2022-10-18T01:42:08.748Z,12.91
2022-10-18T01:44:38.101Z,12.95
2022-10-18T01:47:06.656Z,12.93
2022-10-18T01:49:33.341Z,12.95
2022-10-18T01:51:59.707Z,12.99
2022-10-18T01:54:35.656Z,13.05
2022-10-18T01:57:12.149Z,13.13
2022-10-18T01:59:47.971Z,13.15
2022-10-18T02:02:44.194Z,13.11
2022-10-18T02:05:33.084Z,13.10
2022-10-18T02:08:22.861Z,13.04
2022-10-18T02:10:55.430Z,13.05
2022-10-18T02:13:25.198Z,13.06
2022-10-18T02:15:56.176Z,13.00
2022-10-18T02:18:28.753Z,13.05
2022-10-18T02:20:56.376Z,13.01
2022-10-18T02:23:26.246Z,12.98
2022-10-18T02:25:53.379Z,12.98
2022-10-18T02:28:20.390Z,12.97
2022-10-18T02:30:54.373Z,12.94
2022-10-18T02:33:34.047Z,12.96
2022-10-18T02:36:10.664Z,12.85
2022-10-18T02:38:39.556Z,12.80
2022-10-18T02:41:06.164Z,12.83
2022-10-18T02:43:32.467Z,12.80
2022-10-18T02:45:58.936Z,12.75
2022-10-18T02:48:25.264Z,12.66
2022-10-18T02:50:51.566Z,12.68
2022-10-18T02:53:17.860Z,12.66
2022-10-18T02:55:44.187Z,12.63
2022-10-18T02:58:10.465Z,12.70
2022-10-18T03:00:36.770Z,12.70
2022-10-18T03:03:03.090Z,12.66
2022-10-18T03:05:29.375Z,12.65
2022-10-18T03:07:58.688Z,12.71
2022-10-18T03:10:24.970Z,12.67
2022-10-18T03:12:51.273Z,12.70
2022-10-18T03:15:17.548Z,12.57
2022-10-18T03:17:43.851Z,12.52
2022-10-18T03:20:10.773Z,12.55
2022-10-18T03:22:37.236Z,12.52
2022-10-18T03:25:03.756Z,12.45
2022-10-18T03:27:30.367Z,12.42
2022-10-18T03:29:56.911Z,12.48
2022-10-18T03:32:23.200Z,12.47
2022-10-18T03:34:49.512Z,12.50
2022-10-18T03:37:15.808Z,12.46
2022-10-18T03:39:42.104Z,12.46
2022-10-18T03:42:08.386Z,12.42
2022-10-18T03:44:34.713Z,12.38
2022-10-18T03:47:01.120Z,12.35
2022-10-18T03:49:27.499Z,12.41
2022-10-18T03:51:53.830Z,12.38
2022-10-18T03:54:20.211Z,12.39
2022-10-18T03:56:46.575Z,12.35
2022-10-18T03:59:13.534Z,12.34
2022-10-18T04:01:39.858Z,12.34
2022-10-18T04:04:06.212Z,12.28
2022-10-18T04:06:32.507Z,12.32
2022-10-18T04:08:58.796Z,12.25
2022-10-18T04:11:25.091Z,12.20
2022-10-18T04:13:51.420Z,12.19
2022-10-18T04:16:17.727Z,12.19
2022-10-18T04:18:44.017Z,12.17
2022-10-18T04:21:10.314Z,12.14
2022-10-18T04:23:38.753Z,12.10
2022-10-18T04:26:05.667Z,12.06
2022-10-18T04:28:33.624Z,12.08
2022-10-18T04:30:59.984Z,11.97
2022-10-18T04:33:26.378Z,11.93
2022-10-18T04:35:53.229Z,11.91
2022-10-18T04:38:20.082Z,11.92
2022-10-18T04:40:46.694Z,11.91
2022-10-18T04:43:13.023Z,11.89
2022-10-18T04:45:39.355Z,11.93
2022-10-18T04:48:06.008Z,11.88
2022-10-18T04:50:32.336Z,11.84
2022-10-18T04:52:58.637Z,11.85
2022-10-18T04:55:25.091Z,11.83
2022-10-18T04:57:52.977Z,11.82
2022-10-18T05:00:19.456Z,11.80
2022-10-18T05:02:45.743Z,11.76
2022-10-18T05:05:14.118Z,11.79
2022-10-18T05:07:40.733Z,11.78
2022-10-18T05:10:07.786Z,11.82
2022-10-18T05:12:34.368Z,11.92
2022-10-18T05:15:00.915Z,11.97
2022-10-18T05:17:27.222Z,11.98
2022-10-18T05:19:53.513Z,12.02
2022-10-18T05:22:19.788Z,12.09
2022-10-18T05:24:46.083Z,12.08
2022-10-18T05:27:12.377Z,12.15
2022-10-18T05:29:39.179Z,12.18
2022-10-18T05:32:05.480Z,12.24
2022-10-18T05:34:32.035Z,12.32
2022-10-18T05:36:58.393Z,12.35
2022-10-18T05:39:24.794Z,12.39
2022-10-18T05:41:51.135Z,12.43
2022-10-18T05:44:17.491Z,12.47
2022-10-18T05:46:43.849Z,12.54
2022-10-18T05:49:12.707Z,12.56
2022-10-18T05:51:39.172Z,12.57
2022-10-18T05:54:05.500Z,12.61
2022-10-18T05:56:31.876Z,12.64
2022-10-18T05:58:58.244Z,12.61
2022-10-18T06:01:24.508Z,12.56
2022-10-18T06:03:50.830Z,12.60
2022-10-18T06:06:17.174Z,12.62
2022-10-18T06:08:44.362Z,12.62
2022-10-18T06:11:13.216Z,12.61
2022-10-18T06:13:43.692Z,12.60
2022-10-18T06:16:10.860Z,12.64
2022-10-18T06:18:37.614Z,12.65
2022-10-18T06:21:04.201Z,12.60
2022-10-18T06:23:30.613Z,12.54
2022-10-18T06:26:05.454Z,12.54
2022-10-18T06:28:34.737Z,12.47
2022-10-18T06:31:01.365Z,12.45
2022-10-18T06:33:27.748Z,12.47
2022-10-18T06:35:59.392Z,12.31
2022-10-18T06:38:26.786Z,12.26
2022-10-18T06:40:53.753Z,12.18
2022-10-18T06:43:21.508Z,12.14
2022-10-18T06:45:48.970Z,12.13
2022-10-18T06:48:15.856Z,12.11
2022-10-18T06:50:42.570Z,12.13
2022-10-18T06:53:09.519Z,12.19
2022-10-18T06:55:36.083Z,12.20
2022-10-18T06:58:02.494Z,12.22
2022-10-18T07:00:28.863Z,12.21
2022-10-18T07:02:56.740Z,12.28
2022-10-18T07:05:23.103Z,12.27
2022-10-18T07:07:52.901Z,12.16
2022-10-18T07:10:22.158Z,12.20
2022-10-18T07:12:48.506Z,12.21
2022-10-18T07:15:15.004Z,12.26
2022-10-18T07:17:41.701Z,12.20
2022-10-18T07:20:08.263Z,12.30
2022-10-18T07:22:34.583Z,12.35
2022-10-18T07:25:00.868Z,12.42
2022-10-18T07:27:27.177Z,12.47
2022-10-18T07:29:53.524Z,12.48
2022-10-18T07:32:19.995Z,12.47
2022-10-18T07:34:46.284Z,12.43
2022-10-18T07:37:12.616Z,12.47
2022-10-18T07:39:39.041Z,12.38
2022-10-18T07:42:05.436Z,12.39
2022-10-18T07:44:31.736Z,12.39
2022-10-18T07:46:58.187Z,12.37
2022-10-18T07:49:24.537Z,12.42
2022-10-18T07:51:50.853Z,12.46
2022-10-18T07:54:17.258Z,12.49
2022-10-18T07:56:43.530Z,12.48
2022-10-18T07:59:11.113Z,12.52
2022-10-18T08:01:37.514Z,12.53
2022-10-18T08:04:07.488Z,12.60
2022-10-18T08:06:35.367Z,12.55
2022-10-18T08:09:01.647Z,12.62
2022-10-18T08:11:28.121Z,12.51
2022-10-18T08:13:54.549Z,12.44
2022-10-18T08:16:24.122Z,12.43
2022-10-18T08:18:51.261Z,12.45
2022-10-18T08:21:19.721Z,12.43
2022-10-18T08:23:46.647Z,12.55
2022-10-18T08:26:16.734Z,12.57
2022-10-18T08:28:53.506Z,12.66
2022-10-18T08:31:30.674Z,12.80
2022-10-18T08:33:57.298Z,12.77
2022-10-18T08:36:23.753Z,12.83
2022-10-18T08:38:50.118Z,12.76
2022-10-18T08:41:36.858Z,12.78
2022-10-18T08:44:12.056Z,12.76
2022-10-18T08:46:42.305Z,12.86
2022-10-18T08:49:22.570Z,12.91
2022-10-18T08:51:51.177Z,12.96
2022-10-18T08:54:38.305Z,12.98
2022-10-18T08:57:13.478Z,12.93
2022-10-18T08:59:41.389Z,12.91
2022-10-18T09:02:31.500Z,12.80
2022-10-18T09:05:14.316Z,12.89
2022-10-18T09:07:51.540Z,12.93
2022-10-18T09:10:46.285Z,12.89
2022-10-18T09:13:50.238Z,12.84
2022-10-18T09:16:38.165Z,12.76
2022-10-18T09:19:26.387Z,12.74
2022-10-18T09:21:55.005Z,12.84
2022-10-18T09:25:04.406Z,12.95
2022-10-18T09:28:02.756Z,13.02
2022-10-18T09:30:50.413Z,13.07
2022-10-18T09:33:34.596Z,12.99
2022-10-18T09:36:07.800Z,12.94
2022-10-18T09:38:44.369Z,13.09
2022-10-18T09:41:18.311Z,13.14
2022-10-18T09:43:54.331Z,13.28
2022-10-18T09:46:24.924Z,13.39
2022-10-18T09:48:58.452Z,13.49
2022-10-18T09:51:28.865Z,13.62
2022-10-18T09:54:03.722Z,13.67
2022-10-18T09:56:39.385Z,13.76
2022-10-18T09:59:33.859Z,13.60
2022-10-18T10:02:00.353Z,13.76
2022-10-18T10:04:27.275Z,13.75
2022-10-18T10:06:55.928Z,13.83
2022-10-18T10:09:40.607Z,13.84
2022-10-18T10:12:24.497Z,13.96
2022-10-18T10:14:50.797Z,14.07
2022-10-18T10:17:31.747Z,14.14
2022-10-18T10:20:14.292Z,14.18
2022-10-18T10:22:42.098Z,14.15
2022-10-18T10:25:31.434Z,14.11
2022-10-18T10:28:03.846Z,14.08
2022-10-18T10:30:33.149Z,14.19
2022-10-18T10:32:59.596Z,14.14
2022-10-18T10:35:54.256Z,14.19
2022-10-18T10:38:25.907Z,14.13
2022-10-18T10:40:53.093Z,14.20
2022-10-18T10:43:40.437Z,14.10
2022-10-18T10:46:10.631Z,14.00
2022-10-18T10:49:21.748Z,13.90
2022-10-18T10:51:50.631Z,14.04
2022-10-18T10:54:26.820Z,14.19
2022-10-18T10:57:12.432Z,14.27
2022-10-18T10:59:44.855Z,14.35
2022-10-18T11:02:14.351Z,14.47
2022-10-18T11:04:42.102Z,14.37
2022-10-18T11:07:33.281Z,14.36
2022-10-18T11:10:12.183Z,14.02
2022-10-18T11:12:45.031Z,13.85
2022-10-18T11:15:14.351Z,13.70
2022-10-18T11:18:14.638Z,13.86
2022-10-18T11:20:46.555Z,13.95
2022-10-18T11:23:17.494Z,14.00
2022-10-18T11:26:07.940Z,14.21
2022-10-18T11:28:59.037Z,14.26
2022-10-18T11:31:35.670Z,14.27
2022-10-18T11:34:29.964Z,14.10
2022-10-18T11:37:37.560Z,14.01
2022-10-18T11:40:25.863Z,13.81
2022-10-18T11:43:06.899Z,13.74
2022-10-18T11:45:46.092Z,13.74
2022-10-18T11:48:27.630Z,13.88
2022-10-18T11:51:09.464Z,13.95
2022-10-18T11:53:35.739Z,13.93
2022-10-18T11:56:20.862Z,13.87
2022-10-18T11:59:10.961Z,13.80
2022-10-18T12:01:43.808Z,13.88
2022-10-18T12:04:15.776Z,14.02
2022-10-18T12:06:45.614Z,14.17
2022-10-18T12:09:37.490Z,14.26
2022-10-18T12:12:16.231Z,14.28
2022-10-18T12:14:49.128Z,14.56
2022-10-18T12:17:51.030Z,14.69
2022-10-18T12:20:17.108Z,14.85
2022-10-18T12:22:50.676Z,14.95
2022-10-18T12:25:18.862Z,14.77
2022-10-18T12:28:06.149Z,14.80
2022-10-18T12:30:42.253Z,14.86
2022-10-18T12:33:33.467Z,15.01
2022-10-18T12:36:26.944Z,15.02
2022-10-18T12:38:58.392Z,15.10
2022-10-18T12:41:29.003Z,15.15
2022-10-18T12:44:05.730Z,15.19
2022-10-18T12:46:53.455Z,15.30
2022-10-18T12:49:29.715Z,15.50
2022-10-18T12:52:00.667Z,15.48
2022-10-18T12:54:38.172Z,15.46
2022-10-18T12:57:23.044Z,15.59
2022-10-18T12:59:49.823Z,15.55
2022-10-18T13:02:22.566Z,15.49
2022-10-18T13:04:49.022Z,15.62
2022-10-18T13:07:32.607Z,15.44
2022-10-18T13:10:12.249Z,15.39
2022-10-18T13:12:59.406Z,15.40
2022-10-18T13:15:44.146Z,15.57
2022-10-18T13:18:34.059Z,15.66
2022-10-18T13:21:20.231Z,15.56
2022-10-18T13:23:57.397Z,15.08
2022-10-18T13:26:35.919Z,14.92
2022-10-18T13:29:26.400Z,14.92
2022-10-18T13:32:06.977Z,14.89
2022-10-18T13:34:38.725Z,14.78
2022-10-18T13:37:11.249Z,14.66
2022-10-18T13:39:39.883Z,14.73
2022-10-18T13:42:15.029Z,14.68
2022-10-18T13:44:43.599Z,14.78
2022-10-18T13:47:14.963Z,14.75
2022-10-18T13:50:12.078Z,14.70
2022-10-18T13:53:09.658Z,14.74
2022-10-18T13:55:55.121Z,14.84
2022-10-18T13:58:34.547Z,14.86
2022-10-18T14:01:29.832Z,14.85
2022-10-18T14:04:17.765Z,14.79
2022-10-18T14:06:47.172Z,14.76
2022-10-18T14:09:40.274Z,14.77
2022-10-18T14:12:43.404Z,14.86
2022-10-18T14:15:25.626Z,14.82
2022-10-18T14:18:13.894Z,14.86
2022-10-18T14:21:01.463Z,14.85
2022-10-18T14:23:41.495Z,14.86
2022-10-18T14:26:12.792Z,14.71
2022-10-18T14:28:58.460Z,14.68
2022-10-18T14:31:25.674Z,14.50
2022-10-18T14:33:57.560Z,14.30
2022-10-18T14:36:26.771Z,14.20
2022-10-18T14:39:04.831Z,14.18
2022-10-18T14:41:33.578Z,14.13
2022-10-18T14:44:14.947Z,14.07
2022-10-18T14:47:01.808Z,14.02
2022-10-18T14:49:28.790Z,14.03
2022-10-18T14:51:58.352Z,14.03
2022-10-18T14:54:32.026Z,14.07
2022-10-18T14:57:00.387Z,14.16
2022-10-18T14:59:29.477Z,14.04
2022-10-18T15:02:14.718Z,14.04
2022-10-18T15:04:44.783Z,14.06
2022-10-18T15:07:16.662Z,14.07
2022-10-18T15:09:44.273Z,14.06
2022-10-18T15:12:13.393Z,14.11
2022-10-18T15:14:41.685Z,14.00
2022-10-18T15:17:25.996Z,13.86
2022-10-18T15:20:21.253Z,13.88
2022-10-18T15:22:47.938Z,13.81
2022-10-18T15:25:16.321Z,13.76
2022-10-18T15:27:46.184Z,13.74
2022-10-18T15:30:37.444Z,13.64
2022-10-18T15:33:09.577Z,13.63
2022-10-18T15:35:38.214Z,13.49
2022-10-18T15:38:15.469Z,13.49
2022-10-18T15:40:42.875Z,13.51
2022-10-18T15:43:24.401Z,13.40
2022-10-18T15:45:58.746Z,13.37
2022-10-18T15:48:35.566Z,13.25
2022-10-18T15:51:04.652Z,13.21
2022-10-18T15:53:41.712Z,13.11
2022-10-18T15:56:30.737Z,13.09
2022-10-18T15:58:59.543Z,13.04
2022-10-18T16:01:34.825Z,13.02
2022-10-18T16:04:07.003Z,12.90
2022-10-18T16:06:37.266Z,12.93
2022-10-18T16:09:04.372Z,12.80
2022-10-18T16:11:30.734Z,12.81
2022-10-18T16:13:59.573Z,12.80
2022-10-18T16:16:28.718Z,12.64
2022-10-18T16:18:58.680Z,12.65
2022-10-18T16:21:31.291Z,12.59
2022-10-18T16:23:57.891Z,12.56
2022-10-18T16:26:25.173Z,12.52
2022-10-18T16:28:51.736Z,12.51
2022-10-18T16:31:21.084Z,12.52
2022-10-18T16:33:48.820Z,12.66
2022-10-18T16:36:17.294Z,12.67
2022-10-18T16:38:44.184Z,12.68
2022-10-18T16:41:11.256Z,12.66
2022-10-18T16:43:38.160Z,12.69
2022-10-18T16:46:05.988Z,12.64
2022-10-18T16:48:33.072Z,12.56
2022-10-18T16:50:59.566Z,12.61
2022-10-18T16:53:26.182Z,12.68
2022-10-18T16:55:56.062Z,12.64
2022-10-18T17:00:50.822Z,12.60
2022-10-18T17:03:17.185Z,12.54
2022-10-18T17:05:43.782Z,12.58
2022-10-18T17:08:27.892Z,12.63
2022-10-18T17:10:57.188Z,12.62
2022-10-18T17:13:24.617Z,12.61
2022-10-18T17:15:51.794Z,12.66
2022-10-18T17:18:26.129Z,12.64
2022-10-18T17:20:52.728Z,12.61
2022-10-18T17:23:19.095Z,12.62
2022-10-18T17:25:57.766Z,12.65
2022-10-18T17:28:32.840Z,12.68
2022-10-18T17:30:59.148Z,12.69
2022-10-18T17:33:25.448Z,12.69
2022-10-18T17:35:51.731Z,12.67
2022-10-18T17:38:18.012Z,12.70
2022-10-18T17:40:44.289Z,12.65
2022-10-18T17:43:13.154Z,12.66
2022-10-18T17:45:49.610Z,12.69
2022-10-18T17:48:15.959Z,12.67
2022-10-18T17:50:42.366Z,12.68
2022-10-18T17:53:10.573Z,12.71
2022-10-18T17:55:36.840Z,12.66
2022-10-18T17:58:03.315Z,12.61
2022-10-18T18:00:29.654Z,12.60
2022-10-18T18:03:00.112Z,12.60
2022-10-18T18:05:31.510Z,12.67
2022-10-18T18:08:02.721Z,12.71
2022-10-18T18:10:32.983Z,12.64
2022-10-18T18:12:59.486Z,12.67
2022-10-18T18:15:25.835Z,12.54
2022-10-18T18:17:56.964Z,12.50
2022-10-18T18:20:24.314Z,12.49
2022-10-18T18:22:51.686Z,12.51
2022-10-18T18:25:18.123Z,12.61
2022-10-18T18:27:44.440Z,12.61
2022-10-18T18:30:11.136Z,12.64
2022-10-18T18:32:37.402Z,12.64
2022-10-18T18:35:03.963Z,12.60
2022-10-18T18:37:30.322Z,12.58
2022-10-18T18:39:56.664Z,12.56
2022-10-18T18:42:23.006Z,12.53
2022-10-18T18:44:49.907Z,12.41
2022-10-18T18:49:47.583Z,12.60
2022-10-18T18:52:13.903Z,12.54
2022-10-18T18:54:40.216Z,12.47
2022-10-18T18:57:06.572Z,12.47
2022-10-18T18:59:32.894Z,12.48
2022-10-18T19:01:59.211Z,12.54
2022-10-18T19:04:25.567Z,12.56
2022-10-18T19:06:51.876Z,12.57
2022-10-18T19:09:20.498Z,12.54
2022-10-18T19:11:48.577Z,12.54
2022-10-18T19:14:15.483Z,12.52
2022-10-18T19:16:47.361Z,12.51
2022-10-18T19:19:19.706Z,12.53
2022-10-18T19:21:49.318Z,12.47
2022-10-18T19:24:15.776Z,12.34
2022-10-18T19:26:50.819Z,12.27
2022-10-18T19:29:24.637Z,12.35
2022-10-18T19:31:52.736Z,12.34
2022-10-18T19:34:20.711Z,12.22
2022-10-18T19:36:48.906Z,12.25
2022-10-18T19:39:20.001Z,12.07
2022-10-18T19:41:51.348Z,11.99
2022-10-18T19:44:18.954Z,11.89
2022-10-18T19:46:45.719Z,11.98
2022-10-18T19:49:12.171Z,11.95
2022-10-18T19:51:38.786Z,11.94
2022-10-18T19:54:05.299Z,11.92
2022-10-18T19:56:31.636Z,11.96
2022-10-18T19:58:59.527Z,11.94
2022-10-18T20:01:27.546Z,12.00
2022-10-18T20:03:54.240Z,12.06
2022-10-18T20:06:20.897Z,12.01
2022-10-18T20:08:47.815Z,11.93
2022-10-18T20:11:21.465Z,11.89
2022-10-18T20:13:48.333Z,11.89
2022-10-18T20:16:16.997Z,11.82
2022-10-18T20:18:43.583Z,11.75
2022-10-18T20:21:12.459Z,11.75
2022-10-18T20:23:40.391Z,11.70
2022-10-18T20:26:10.050Z,11.61
2022-10-18T20:28:38.201Z,11.65
2022-10-18T20:31:07.629Z,11.69
2022-10-18T20:33:35.393Z,11.55
2022-10-18T20:36:07.390Z,11.55
2022-10-18T20:38:35.458Z,11.43
2022-10-18T20:41:06.991Z,11.47
2022-10-18T20:43:34.483Z,11.33
2022-10-18T20:46:01.595Z,11.25
2022-10-18T20:48:29.034Z,11.26
2022-10-18T20:50:55.400Z,11.19
2022-10-18T20:53:25.092Z,11.16
2022-10-18T20:55:51.372Z,11.10
2022-10-18T20:58:17.863Z,11.01
2022-10-18T21:00:44.173Z,10.99
2022-10-18T21:03:13.238Z,10.92
2022-10-18T21:05:39.566Z,10.90
2022-10-18T21:08:05.867Z,10.85
2022-10-18T21:10:32.280Z,10.73
2022-10-18T21:12:58.622Z,10.76
2022-10-18T21:15:24.952Z,10.73
2022-10-18T21:17:51.635Z,10.75
2022-10-18T21:20:18.695Z,10.73
2022-10-18T21:22:45.049Z,10.70
2022-10-18T21:25:11.393Z,10.67
2022-10-18T21:27:37.733Z,10.66
2022-10-18T21:30:04.494Z,10.57
2022-10-18T21:32:31.271Z,10.58
2022-10-18T21:34:58.034Z,10.52
2022-10-18T21:37:24.396Z,10.53
2022-10-18T21:39:50.669Z,10.50
2022-10-18T21:42:16.977Z,10.53
2022-10-18T21:44:43.262Z,10.64
2022-10-18T21:47:09.542Z,10.64
2022-10-18T21:49:35.911Z,10.65
2022-10-18T21:52:05.308Z,10.60
2022-10-18T21:54:31.671Z,10.64
2022-10-18T21:56:57.979Z,10.59
2022-10-18T21:59:24.310Z,10.62
2022-10-18T22:01:51.874Z,10.65
2022-10-18T22:04:23.506Z,10.57
2022-10-18T22:06:50.741Z,10.66
2022-10-18T22:09:17.572Z,10.63
2022-10-18T22:11:48.844Z,10.70
2022-10-18T22:14:15.152Z,10.63
2022-10-18T22:16:41.477Z,10.62
2022-10-18T22:19:07.993Z,10.59
2022-10-18T22:21:35.203Z,10.54
2022-10-18T22:24:07.796Z,10.54
2022-10-18T22:26:37.327Z,10.44
2022-10-18T22:29:21.800Z,10.26
2022-10-18T22:31:52.268Z,10.32
2022-10-18T22:34:28.871Z,10.25
2022-10-18T22:36:55.447Z,10.17
2022-10-18T22:39:21.988Z,10.09
2022-10-18T22:41:51.976Z,10.12
2022-10-18T22:44:18.257Z,10.17
2022-10-18T22:46:44.568Z,10.20
2022-10-18T22:49:11.636Z,10.19
2022-10-18T22:51:37.932Z,10.25
2022-10-18T22:54:04.264Z,10.20
2022-10-18T22:56:30.589Z,10.28
2022-10-18T22:58:56.979Z,10.29
2022-10-18T23:01:23.962Z,10.24
2022-10-18T23:03:55.169Z,10.29
2022-10-18T23:06:25.729Z,10.24
2022-10-18T23:08:53.876Z,10.16
2022-10-18T23:11:20.485Z,10.07
2022-10-18T23:13:47.320Z,10.00
2022-10-18T23:16:14.767Z,9.95
2022-10-18T23:18:41.118Z,9.92
2022-10-18T23:21:12.972Z,9.91
2022-10-18T23:23:41.972Z,9.89
2022-10-18T23:26:14.329Z,9.95
2022-10-18T23:28:43.346Z,9.95
2022-10-18T23:31:12.589Z,9.93
2022-10-18T23:33:39.880Z,9.91
2022-10-18T23:36:07.971Z,9.95
2022-10-18T23:38:35.340Z,10.01
2022-10-18T23:41:01.643Z,10.00
2022-10-18T23:43:28.078Z,10.01
2022-10-18T23:45:54.455Z,10.00
2022-10-18T23:48:20.823Z,10.01
2022-10-18T23:50:47.181Z,10.02
2022-10-18T23:53:13.556Z,9.93
2022-10-18T23:55:39.898Z,9.97
2022-10-18T23:58:06.189Z,10.02
